createdAt,value
2019-03-17T00:01:56.992Z,13.57
2019-03-17T00:04:30.969Z,13.67
2019-03-17T00:06:50.929Z,15.33
2019-03-17T00:09:18.570Z,15.10
2019-03-17T00:11:46.255Z,17.47
2019-03-17T00:14:14.001Z,19.17
2019-03-17T00:16:41.618Z,17.67
2019-03-17T00:19:09.216Z,15.90
2019-03-17T00:21:36.863Z,14.97
2019-03-17T00:24:04.514Z,17.23
2019-03-17T00:26:32.118Z,16.30
2019-03-17T00:28:59.757Z,16.47
2019-03-17T00:31:27.364Z,18.00
2019-03-17T00:33:54.970Z,22.90
2019-03-17T00:36:22.565Z,20.77
2019-03-17T00:38:50.198Z,19.10
2019-03-17T00:41:17.769Z,19.93
2019-03-17T00:43:45.424Z,15.63
2019-03-17T00:46:13.168Z,16.80
2019-03-17T00:48:40.761Z,17.17
2019-03-17T00:51:08.344Z,17.57
2019-03-17T00:53:35.929Z,16.43
2019-03-17T00:56:03.571Z,17.67
2019-03-17T00:58:31.264Z,17.27
2019-03-17T01:00:58.868Z,16.50
2019-03-17T01:03:26.571Z,15.33
2019-03-17T01:05:54.187Z,16.90
2019-03-17T01:08:21.810Z,15.80
2019-03-17T01:10:49.404Z,16.47
2019-03-17T01:13:17.110Z,16.67
2019-03-17T01:15:44.701Z,16.53
2019-03-17T01:18:12.361Z,14.63
2019-03-17T01:20:40.228Z,18.63
2019-03-17T01:23:07.828Z,24.20
2019-03-17T01:25:35.400Z,20.50
2019-03-17T01:28:03.008Z,16.77
2019-03-17T01:30:30.601Z,39.87
2019-03-17T01:32:58.235Z,21.73
2019-03-17T01:35:25.981Z,19.37
2019-03-17T01:37:53.609Z,20.03
2019-03-17T01:40:21.216Z,22.17
2019-03-17T01:42:48.784Z,20.10
2019-03-17T01:45:16.406Z,20.37
2019-03-17T01:47:43.998Z,17.60
2019-03-17T01:50:11.580Z,17.80
2019-03-17T01:52:39.197Z,16.63
2019-03-17T02:35:58.020Z,13.37
2019-03-17T02:38:26.298Z,11.83
2019-03-17T02:41:00.211Z,15.37
2019-03-17T02:43:28.016Z,14.27
2019-03-17T02:46:03.716Z,12.97
2019-03-17T02:48:31.970Z,11.53
2019-03-17T02:51:02.247Z,12.47
2019-03-17T02:53:32.805Z,11.47
2019-03-17T02:56:07.383Z,11.50
2019-03-17T02:58:35.748Z,12.90
2019-03-17T03:01:03.724Z,12.50
2019-03-17T03:03:31.285Z,13.13
2019-03-17T03:05:58.841Z,14.03
2019-03-17T03:08:26.419Z,13.87
2019-03-17T03:10:54.375Z,13.27
2019-03-17T03:13:21.959Z,13.23
2019-03-17T03:15:49.532Z,14.57
2019-03-17T03:18:17.129Z,15.10
2019-03-17T03:20:44.730Z,14.23
2019-03-17T03:23:12.302Z,15.07
2019-03-17T03:25:40.015Z,15.10
2019-03-17T03:28:07.694Z,17.63
2019-03-17T03:30:35.384Z,16.77
2019-03-17T03:33:03.016Z,16.07
2019-03-17T03:35:30.620Z,17.33
2019-03-17T03:37:58.242Z,18.30
2019-03-17T03:40:25.858Z,16.53
2019-03-17T03:42:53.424Z,16.97
2019-03-17T03:45:21.143Z,17.97
2019-03-17T03:47:48.727Z,18.60
2019-03-17T03:50:16.384Z,15.70
2019-03-17T03:52:43.984Z,20.50
2019-03-17T03:55:11.654Z,17.47
2019-03-17T03:57:39.258Z,18.77
2019-03-17T04:00:07.283Z,25.83
2019-03-17T04:02:34.897Z,24.23
2019-03-17T04:05:02.476Z,24.87
2019-03-17T04:07:30.038Z,23.50
2019-03-17T04:09:57.758Z,25.50
2019-03-17T04:12:25.323Z,19.77
2019-03-17T04:14:53.700Z,22.47
2019-03-17T04:17:21.361Z,19.10
2019-03-17T04:19:48.933Z,17.33
2019-03-17T04:22:16.514Z,16.37
2019-03-17T04:24:44.195Z,14.30
2019-03-17T04:27:11.766Z,16.63
2019-03-17T04:29:39.391Z,11.87
2019-03-17T04:32:06.988Z,12.57
2019-03-17T04:34:34.639Z,10.13
2019-03-17T05:01:20.377Z,10.50
2019-03-17T05:03:47.995Z,11.63
2019-03-17T05:06:15.745Z,9.93
2019-03-17T05:08:43.406Z,10.30
2019-03-17T05:11:11.101Z,10.20
2019-03-17T05:13:38.740Z,11.67
2019-03-17T05:16:06.350Z,10.97
2019-03-17T05:18:33.960Z,11.00
2019-03-17T05:21:01.601Z,9.40
2019-03-17T05:23:29.162Z,10.00
2019-03-17T05:25:56.817Z,9.23
2019-03-17T05:28:24.384Z,10.90
2019-03-17T05:30:51.983Z,8.87
2019-03-17T05:33:19.566Z,10.57
2019-03-17T05:35:47.160Z,9.33
2019-03-17T05:38:14.748Z,9.63
2019-03-17T05:40:42.386Z,8.97
2019-03-17T05:43:09.941Z,9.87
2019-03-17T05:45:37.556Z,10.30
2019-03-17T05:48:05.141Z,9.83
2019-03-17T05:50:32.718Z,11.60
2019-03-17T05:53:00.335Z,9.13
2019-03-17T05:55:27.997Z,9.13
2019-03-17T05:57:55.633Z,8.47
2019-03-17T06:00:23.269Z,9.33
2019-03-17T06:02:50.825Z,8.33
2019-03-17T06:05:18.421Z,10.23
2019-03-17T06:07:46.126Z,8.03
2019-03-17T06:10:13.809Z,9.60
2019-03-17T06:12:41.378Z,9.83
2019-03-17T06:15:09.269Z,9.00
2019-03-17T06:17:36.965Z,12.53
2019-03-17T06:20:05.203Z,11.60
2019-03-17T06:22:32.806Z,10.37
2019-03-17T06:25:00.482Z,12.07
2019-03-17T06:27:28.060Z,9.97
2019-03-17T06:29:55.672Z,10.40
2019-03-17T06:32:23.264Z,10.17
2019-03-17T06:34:50.838Z,6.80
2019-03-17T06:37:30.187Z,7.93
2019-03-17T06:39:47.925Z,9.23
2019-03-17T06:42:15.495Z,9.67
2019-03-17T06:44:43.066Z,7.63
2019-03-17T06:47:10.712Z,7.77
2019-03-17T06:49:38.318Z,7.93
2019-03-17T06:52:05.915Z,8.30
2019-03-17T06:54:33.657Z,7.87
2019-03-17T06:57:01.304Z,7.13
2019-03-17T06:59:28.902Z,6.30
2019-03-17T07:01:56.625Z,4.90
2019-03-17T07:04:24.284Z,12.10
2019-03-17T07:06:51.884Z,12.80
2019-03-17T07:09:19.622Z,11.60
2019-03-17T07:11:47.476Z,13.07
2019-03-17T07:14:15.230Z,13.67
2019-03-17T07:16:43.157Z,13.40
2019-03-17T07:19:10.845Z,12.23
2019-03-17T07:21:38.489Z,12.17
2019-03-17T07:24:06.267Z,11.17
2019-03-17T07:26:34.001Z,8.80
2019-03-17T07:29:01.720Z,10.13
2019-03-17T07:31:29.568Z,9.33
2019-03-17T07:33:57.206Z,6.10
2019-03-17T07:36:24.874Z,7.60
2019-03-17T07:38:52.573Z,7.77
2019-03-17T07:41:20.348Z,5.70
2019-03-17T07:43:48.007Z,11.50
2019-03-17T07:46:15.600Z,12.87
2019-03-17T07:48:43.546Z,11.73
2019-03-17T07:51:11.201Z,9.70
2019-03-17T07:53:38.892Z,11.73
2019-03-17T07:56:06.666Z,11.20
2019-03-17T07:58:34.441Z,10.13
2019-03-17T08:01:02.234Z,10.17
2019-03-17T08:44:51.897Z,7.40
2019-03-17T08:47:22.341Z,8.03
2019-03-17T08:49:49.084Z,8.47
2019-03-17T08:52:16.666Z,9.40
2019-03-17T08:54:44.238Z,8.40
2019-03-17T08:57:11.820Z,5.97
2019-03-17T08:59:39.443Z,6.23
2019-03-17T09:02:08.089Z,7.07
2019-03-17T09:04:35.726Z,7.80
2019-03-17T09:07:03.289Z,6.70
2019-03-17T09:09:31.002Z,5.47
2019-03-17T09:11:58.575Z,7.37
2019-03-17T09:14:26.240Z,6.70
2019-03-17T09:16:53.900Z,7.80
2019-03-17T09:19:25.179Z,6.17
2019-03-17T09:21:53.688Z,6.67
2019-03-17T09:24:21.339Z,6.33
2019-03-17T09:26:48.964Z,6.70
2019-03-17T09:29:16.580Z,5.87
2019-03-17T09:31:44.190Z,6.13
2019-03-17T09:34:11.781Z,5.83
2019-03-17T09:36:39.483Z,6.87
2019-03-17T09:39:07.183Z,5.73
2019-03-17T09:41:34.838Z,6.33
2019-03-17T09:44:02.432Z,5.60
2019-03-17T09:46:30.071Z,5.00
2019-03-17T09:48:57.720Z,5.27
2019-03-17T09:51:25.601Z,6.10
2019-03-17T09:53:53.223Z,6.87
2019-03-17T09:56:20.861Z,6.73
2019-03-17T09:58:48.770Z,5.93
2019-03-17T10:01:16.445Z,6.10
2019-03-17T10:07:15.060Z,7.33
2019-03-17T10:09:46.128Z,7.43
2019-03-17T10:13:19.730Z,8.93
2019-03-17T10:15:47.366Z,8.53
2019-03-17T10:18:15.074Z,7.63
2019-03-17T10:20:42.648Z,5.93
2019-03-17T10:23:10.244Z,7.97
2019-03-17T10:25:37.827Z,7.03
2019-03-17T10:28:05.494Z,6.60
2019-03-17T10:30:33.075Z,8.60
2019-03-17T10:33:00.664Z,6.10
2019-03-17T10:35:28.291Z,6.80
2019-03-17T10:37:56.570Z,5.90
2019-03-17T10:40:28.618Z,8.40
2019-03-17T10:42:56.505Z,8.47
2019-03-17T10:45:24.168Z,9.33
2019-03-17T10:47:54.449Z,7.60
2019-03-17T10:50:21.710Z,9.70
2019-03-17T10:52:49.320Z,8.00
2019-03-17T10:55:17.128Z,5.20
2019-03-17T10:57:44.907Z,8.10
2019-03-17T11:00:13.694Z,8.37
2019-03-17T11:02:41.413Z,6.93
2019-03-17T11:05:09.154Z,8.67
2019-03-17T11:07:36.784Z,9.20
2019-03-17T11:10:04.683Z,7.47
2019-03-17T11:12:32.243Z,7.77
2019-03-17T11:14:59.781Z,7.70
2019-03-17T11:17:27.314Z,7.33
2019-03-17T11:19:54.876Z,6.90
2019-03-17T11:22:22.456Z,8.27
2019-03-17T11:24:49.993Z,8.00
2019-03-17T11:27:17.562Z,9.50
2019-03-17T11:29:45.152Z,7.60
2019-03-17T11:32:12.699Z,7.50
2019-03-17T11:34:40.224Z,9.50
2019-03-17T11:37:07.724Z,7.63
2019-03-17T11:39:38.029Z,7.43
2019-03-17T11:42:04.616Z,6.37
2019-03-17T11:44:32.144Z,7.03
2019-03-17T11:46:59.679Z,7.00
2019-03-17T11:49:27.198Z,7.53
2019-03-17T11:51:54.759Z,5.10
2019-03-17T11:54:22.256Z,5.67
2019-03-17T11:56:49.762Z,6.40
2019-03-17T11:59:17.816Z,6.53
2019-03-17T12:01:45.370Z,5.50
2019-03-17T12:04:12.935Z,6.70
2019-03-17T12:06:40.576Z,7.70
2019-03-17T12:09:08.097Z,7.80
2019-03-17T12:11:35.617Z,7.13
2019-03-17T12:14:03.248Z,5.60
2019-03-17T12:16:30.796Z,4.53
2019-03-17T12:18:58.309Z,7.17
2019-03-17T12:21:25.901Z,6.33
2019-03-17T12:23:53.467Z,7.03
2019-03-17T12:26:21.546Z,7.80
2019-03-17T12:28:49.328Z,7.40
2019-03-17T12:31:16.991Z,6.47
2019-03-17T12:33:44.503Z,6.43
2019-03-17T12:36:12.147Z,6.20
2019-03-17T12:38:39.737Z,6.90
2019-03-17T12:41:07.260Z,8.03
2019-03-17T12:43:35.111Z,9.43
2019-03-17T12:46:02.695Z,6.80
2019-03-17T12:48:30.150Z,8.50
2019-03-17T12:50:57.848Z,7.73
2019-03-17T12:53:25.412Z,6.33
2019-03-17T12:55:52.954Z,6.00
2019-03-17T12:58:20.473Z,6.77
2019-03-17T13:00:48.047Z,8.17
2019-03-17T13:03:16.022Z,5.63
2019-03-17T13:05:43.616Z,6.03
2019-03-17T13:08:11.200Z,4.73
2019-03-17T13:10:38.724Z,5.87
2019-03-17T13:13:07.804Z,6.13
2019-03-17T13:15:35.455Z,6.27
2019-03-17T13:18:02.997Z,5.33
2019-03-17T13:20:30.542Z,5.63
2019-03-17T13:22:58.106Z,7.60
2019-03-17T13:25:25.672Z,6.37
2019-03-17T13:27:53.232Z,6.07
2019-03-17T13:30:20.825Z,4.83
2019-03-17T13:32:49.370Z,6.40
2019-03-17T13:35:16.871Z,9.37
2019-03-17T13:37:44.431Z,6.73
2019-03-17T13:40:12.138Z,4.33
2019-03-17T13:42:39.768Z,6.30
2019-03-17T13:45:08.090Z,8.23
2019-03-17T13:47:35.733Z,6.97
2019-03-17T13:50:03.538Z,6.53
2019-03-17T13:52:31.179Z,6.53
2019-03-17T13:54:58.811Z,6.63
2019-03-17T13:57:26.441Z,5.70
2019-03-17T13:59:54.076Z,6.67
2019-03-17T14:02:21.639Z,9.87
2019-03-17T14:04:49.148Z,10.83
2019-03-17T14:07:16.829Z,7.63
2019-03-17T14:09:44.495Z,8.30
2019-03-17T14:12:12.062Z,11.17
2019-03-17T14:14:39.623Z,8.10
2019-03-17T14:17:07.138Z,10.07
2019-03-17T14:19:34.746Z,8.20
2019-03-17T14:22:02.229Z,7.20
2019-03-17T14:24:29.791Z,9.47
2019-03-17T14:26:57.328Z,5.33
2019-03-17T14:29:24.888Z,8.47
2019-03-17T14:31:52.382Z,6.73
2019-03-17T14:34:20.103Z,7.37
2019-03-17T14:36:47.823Z,5.47
2019-03-17T14:39:15.388Z,6.60
2019-03-17T14:41:42.921Z,8.83
2019-03-17T14:44:10.446Z,7.37
2019-03-17T14:46:37.968Z,5.67
2019-03-17T14:49:05.589Z,5.17
2019-03-17T14:51:33.242Z,7.73
2019-03-17T14:54:00.809Z,6.07
2019-03-17T14:56:28.416Z,4.70
2019-03-17T14:58:56.061Z,7.67
2019-03-17T15:01:23.740Z,6.67
2019-03-17T15:03:51.269Z,5.97
2019-03-17T15:06:18.782Z,5.90
2019-03-17T15:08:46.415Z,8.13
2019-03-17T15:11:14.239Z,6.10
2019-03-17T15:13:41.772Z,5.63
2019-03-17T15:16:09.360Z,4.67
2019-03-17T15:18:36.916Z,7.07
2019-03-17T15:21:04.454Z,5.47
2019-03-17T15:23:32.045Z,5.83
2019-03-17T15:25:59.727Z,6.23
2019-03-17T15:28:28.274Z,6.10
2019-03-17T15:31:10.288Z,4.70
2019-03-17T15:33:25.292Z,5.33
2019-03-17T15:35:52.883Z,6.27
2019-03-17T15:38:20.483Z,5.87
2019-03-17T15:40:48.004Z,4.20
2019-03-17T15:43:15.522Z,7.77
2019-03-17T15:45:43.096Z,6.40
2019-03-17T15:48:10.636Z,6.50
2019-03-17T15:50:38.329Z,4.47
2019-03-17T15:53:05.964Z,6.50
2019-03-17T15:55:35.620Z,6.33
2019-03-17T15:58:03.108Z,6.80
2019-03-17T16:00:30.670Z,9.03
2019-03-17T16:02:58.227Z,5.10
2019-03-17T16:05:25.808Z,8.13
2019-03-17T16:07:53.312Z,8.43
2019-03-17T16:10:20.872Z,10.73
2019-03-17T16:12:48.443Z,9.33
2019-03-17T16:15:16.149Z,8.00
2019-03-17T16:17:43.786Z,8.00
2019-03-17T16:20:13.300Z,9.30
2019-03-17T16:22:41.353Z,4.97
2019-03-17T16:25:09.292Z,8.57
2019-03-17T16:27:36.880Z,5.03
2019-03-17T16:30:05.563Z,4.77
2019-03-17T16:32:34.007Z,4.27
2019-03-17T16:35:01.759Z,5.83
2019-03-17T16:37:29.260Z,6.50
2019-03-17T16:39:56.817Z,5.60
2019-03-17T16:42:24.370Z,5.70
2019-03-17T16:44:51.879Z,5.80
2019-03-17T16:47:19.427Z,6.53
2019-03-17T16:49:47.068Z,5.60
2019-03-17T16:52:14.565Z,6.03
2019-03-17T16:54:42.052Z,5.93
2019-03-17T16:57:09.580Z,9.57
2019-03-17T16:59:37.138Z,6.43
2019-03-17T17:02:05.105Z,4.63
2019-03-17T17:04:32.619Z,6.63
2019-03-17T17:07:00.218Z,6.43
2019-03-17T17:09:27.719Z,7.80
2019-03-17T17:11:57.220Z,20.40
2019-03-17T17:14:24.761Z,9.47
2019-03-17T17:16:52.316Z,13.27
2019-03-17T17:19:19.865Z,6.13
2019-03-17T17:21:47.448Z,4.23
2019-03-17T17:24:15.043Z,6.60
2019-03-17T17:26:42.617Z,4.20
2019-03-17T17:29:10.127Z,6.60
2019-03-17T17:31:37.655Z,4.00
2019-03-17T17:34:06.454Z,4.20
2019-03-17T17:36:34.240Z,3.80
2019-03-17T17:39:01.751Z,4.07
2019-03-17T17:41:29.421Z,6.27
2019-03-17T17:43:57.042Z,3.47
2019-03-17T17:46:24.553Z,5.13
2019-03-17T17:48:52.068Z,6.60
2019-03-17T17:51:19.621Z,2.97
2019-03-17T17:53:47.120Z,4.87
2019-03-17T17:56:14.645Z,5.67
2019-03-17T17:58:42.237Z,5.73
2019-03-17T18:01:09.783Z,6.47
2019-03-17T18:03:37.356Z,3.73
2019-03-17T18:06:04.958Z,6.20
2019-03-17T18:08:32.580Z,4.17
2019-03-17T18:11:00.109Z,6.47
2019-03-17T18:13:27.693Z,4.27
2019-03-17T18:15:55.341Z,6.77
2019-03-17T18:18:22.928Z,11.87
2019-03-17T18:20:50.515Z,5.00
2019-03-17T18:23:18.659Z,2.93
2019-03-17T18:25:46.153Z,6.13
2019-03-17T18:28:13.720Z,5.00
2019-03-17T18:30:41.316Z,6.33
2019-03-17T18:33:08.989Z,4.97
2019-03-17T18:35:36.548Z,6.07
2019-03-17T18:38:04.123Z,6.87
2019-03-17T18:40:32.687Z,5.63
2019-03-17T18:43:00.272Z,6.47
2019-03-17T18:45:27.885Z,6.63
2019-03-17T18:47:57.616Z,4.47
2019-03-17T18:50:36.593Z,4.20
2019-03-17T18:53:04.092Z,6.50
2019-03-17T18:55:31.677Z,5.00
2019-03-17T18:57:59.234Z,5.27
2019-03-17T19:00:26.817Z,6.27
2019-03-17T19:02:54.488Z,6.87
2019-03-17T19:05:22.085Z,6.53
2019-03-17T19:07:51.270Z,6.17
2019-03-17T19:10:18.792Z,4.83
2019-03-17T19:12:46.595Z,7.37
2019-03-17T19:15:14.202Z,6.57
2019-03-17T19:17:41.813Z,4.63
2019-03-17T19:20:11.964Z,4.73
2019-03-17T19:22:39.549Z,5.70
2019-03-17T19:25:08.497Z,5.87
2019-03-17T19:27:36.146Z,4.23
2019-03-17T19:30:05.121Z,5.30
2019-03-17T19:32:34.348Z,5.83
2019-03-17T19:35:03.237Z,8.27
2019-03-17T19:37:32.434Z,6.30
2019-03-17T19:40:01.850Z,8.53
2019-03-17T19:42:31.262Z,6.80
2019-03-17T19:45:00.005Z,7.87
2019-03-17T19:47:28.662Z,9.13
2019-03-17T19:49:57.516Z,5.70
2019-03-17T19:52:26.677Z,5.47
2019-03-17T19:54:55.288Z,7.27
2019-03-17T19:57:23.845Z,6.50
2019-03-17T19:59:52.631Z,7.57
2019-03-17T20:02:21.317Z,5.23
2019-03-17T20:04:50.043Z,8.43
2019-03-17T20:07:18.481Z,7.43
2019-03-17T20:09:47.377Z,7.03
2019-03-17T20:12:16.182Z,5.80
2019-03-17T20:14:43.781Z,5.43
2019-03-17T20:17:11.337Z,5.87
2019-03-17T20:19:38.991Z,6.87
2019-03-17T20:22:06.526Z,5.10
2019-03-17T20:24:34.115Z,5.03
2019-03-17T20:27:01.730Z,5.27
2019-03-17T20:29:29.302Z,5.30
2019-03-17T20:31:56.889Z,6.63
2019-03-17T20:34:24.514Z,6.33
2019-03-17T20:36:52.106Z,6.97
2019-03-17T20:39:19.625Z,4.83
2019-03-17T20:41:47.251Z,6.17
2019-03-17T20:44:14.887Z,5.50
2019-03-17T20:46:42.638Z,4.73
2019-03-17T20:49:10.195Z,9.30
2019-03-17T20:51:37.830Z,6.83
2019-03-17T20:54:05.477Z,5.67
2019-03-17T20:56:33.051Z,8.77
2019-03-17T20:59:00.654Z,7.17
2019-03-17T21:01:28.387Z,9.07
2019-03-17T21:03:55.959Z,6.27
2019-03-17T21:06:24.750Z,7.03
2019-03-17T21:08:52.667Z,7.17
2019-03-17T21:11:20.219Z,6.50
2019-03-17T21:13:49.806Z,7.47
2019-03-17T21:16:22.507Z,7.33
2019-03-17T21:18:49.958Z,7.70
2019-03-17T21:21:17.499Z,6.13
2019-03-17T21:23:46.425Z,6.23
2019-03-17T21:26:14.253Z,8.00
2019-03-17T21:28:44.752Z,7.33
2019-03-17T21:31:12.344Z,7.60
2019-03-17T21:33:40.390Z,6.00
2019-03-17T21:36:07.967Z,6.30
2019-03-17T21:38:38.586Z,7.63
2019-03-17T21:41:09.063Z,6.00
2019-03-17T21:43:36.701Z,10.63
2019-03-17T21:46:04.421Z,7.23
2019-03-17T21:48:32.059Z,6.93
2019-03-17T21:50:59.695Z,6.83
2019-03-17T21:53:27.368Z,8.33
2019-03-17T21:55:55.041Z,7.53
2019-03-17T21:58:22.688Z,6.17
2019-03-17T22:00:50.538Z,7.33
2019-03-17T22:03:18.713Z,8.10
2019-03-17T22:05:46.178Z,6.80
2019-03-17T22:08:13.884Z,7.40
2019-03-17T22:10:41.522Z,5.17
2019-03-17T22:13:10.062Z,5.10
2019-03-17T22:15:39.118Z,6.70
2019-03-17T22:18:06.851Z,7.07
2019-03-17T22:20:36.596Z,7.03
2019-03-17T22:23:04.162Z,8.07
2019-03-17T22:25:31.872Z,8.07
2019-03-17T22:28:23.928Z,8.47
2019-03-17T22:32:08.933Z,9.00
2019-03-17T22:35:41.458Z,7.67
2019-03-17T22:38:35.499Z,7.90
2019-03-17T22:41:03.527Z,7.57
2019-03-17T22:43:36.435Z,8.00
2019-03-17T22:51:28.074Z,11.10
2019-03-17T22:53:55.667Z,9.00
2019-03-17T22:56:23.265Z,8.13
2019-03-17T22:58:50.838Z,8.17
2019-03-17T23:01:18.445Z,7.93
2019-03-17T23:03:46.113Z,7.87
2019-03-17T23:06:13.695Z,8.77
2019-03-17T23:08:41.242Z,8.20
2019-03-17T23:11:09.012Z,8.27
2019-03-17T23:13:36.557Z,7.63
2019-03-17T23:16:04.201Z,8.43
2019-03-17T23:18:31.833Z,7.70
2019-03-17T23:20:59.633Z,11.07
2019-03-17T23:23:27.227Z,8.07
2019-03-17T23:25:58.387Z,8.33
2019-03-17T23:28:33.712Z,7.47
2019-03-17T23:31:12.067Z,9.10
2019-03-17T23:33:49.045Z,9.20
2019-03-17T23:36:18.563Z,4.27
2019-03-17T23:38:47.340Z,7.53
2019-03-17T23:41:15.668Z,7.03
2019-03-17T23:46:54.633Z,8.43
2019-03-17T23:49:22.922Z,6.30
2019-03-17T23:51:51.073Z,4.10
2019-03-17T23:54:19.348Z,4.13
2019-03-17T23:56:47.325Z,2.93
2019-03-17T23:59:15.482Z,3.87
